Time;durP1;ratioP1;P1;durP2;ratioP2;P2;SDS_P1;SDS_P2;PMS_P1;PMS_P2;Temp;Humidity;BMP_temperature;BMP_pressure;BME280_temperature;BME280_humidity;BME280_pressure;Samples;Min_cycle;Max_cycle;Signal;HPM_P1;HPM_P2
2021/08/22 00:00:27;;;;;;;;;;;;;;;12.19;90.23;98436.94;1739037;82;20128;-73
2021/08/22 00:02:55;;;;;;;;;;;;;;;12.17;90.17;98433.69;1738952;81;20104;-73
2021/08/22 00:05:21;;;;;;;;;;;;;;;12.17;89.71;98436.95;1739321;81;20150;-73
2021/08/22 00:07:47;;;;;;;;;;;;;;;12.11;89.91;98436.97;1739014;81;20158;-76
2021/08/22 00:10:12;;;;;;;;;;;;;;;12.09;90.09;98438.34;1743100;81;21135;-74
2021/08/22 00:12:39;;;;;;;;;;;;;;;12.05;90.77;98434.03;1740309;82;20162;-77
2021/08/22 00:15:05;;;;;;;;;;;;;;;12.06;90.08;98428.05;1718347;82;20143;-73
2021/08/22 00:17:31;;;;;;;;;;;;;;;12.08;89.44;98431.30;1739250;82;20136;-73
2021/08/22 00:19:57;;;;;;;;;;;;;;;12.04;90.35;98423.42;1738954;81;20158;-77
2021/08/22 00:22:22;;;;;;;;;;;;;;;12.01;90.19;98431.59;1738997;81;21150;-73
2021/08/22 00:24:48;;;;;;;;;;;;;;;11.97;90.17;98427.82;1738946;81;20177;-73
2021/08/22 00:27:14;;;;;;;;;;;;;;;11.96;90.60;98423.45;1739131;81;20217;-73
2021/08/22 00:29:40;;;;;;;;;;;;;;;11.94;89.92;98423.48;1738985;82;20134;-76
2021/08/22 00:32:07;;;;;;;;;;;;;;;11.90;89.70;98424.59;1739193;81;20221;-77
2021/08/22 00:34:32;;;;;;;;;;;;;;;11.85;90.66;98418.63;1718225;82;21760;-77
2021/08/22 00:36:58;;;;;;;;;;;;;;;11.86;90.31;98423.50;1739150;81;20225;-73
2021/08/22 00:39:24;;;;;;;;;;;;;;;11.84;89.75;98417.00;1739001;82;20190;-77
2021/08/22 00:41:50;;;;;;;;;;;;;;;11.81;90.05;98418.92;1738991;82;20151;-76
2021/08/22 00:44:16;;;;;;;;;;;;;;;11.77;89.61;98421.06;1738921;81;20154;-73
2021/08/22 00:46:41;;;;;;;;;;;;;;;11.72;90.31;98418.39;1739193;81;21146;-77
2021/08/22 00:49:07;;;;;;;;;;;;;;;11.70;90.44;98409.69;1738783;82;20166;-77
2021/08/22 00:51:35;;;;;;;;;;;;;;;11.72;90.38;98411.61;1739232;82;20237;-76
2021/08/22 00:54:01;;;;;;;;;;;;;;;11.74;89.54;98414.84;1738185;82;20144;-73
2021/08/22 00:56:27;;;;;;;;;;;;;;;11.69;89.84;98410.78;1718582;82;20163;-77
2021/08/22 00:58:52;;;;;;;;;;;;;;;11.62;89.64;98412.97;1738888;81;21137;-74
2021/08/22 01:01:20;;;;;;;;;;;;;;;11.57;89.58;98412.46;1739140;81;20162;-76
2021/08/22 01:04:06;;;;;;;;;;;;;;;11.51;90.21;98418.44;1738847;81;20136;-77
2021/08/22 01:06:52;;;;;;;;;;;;;;;11.46;90.00;98420.38;1739263;82;20175;-73
2021/08/22 01:09:25;;;;;;;;;;;;;;;11.34;90.44;98413.88;1740537;81;20108;-73
2021/08/22 01:11:50;;;;;;;;;;;;;;;11.29;90.91;98409.83;1717762;82;21927;-76
2021/08/22 01:14:19;;;;;;;;;;;;;;;11.25;90.43;98409.55;1741970;82;20353;-76
2021/08/22 01:16:48;;;;;;;;;;;;;;;11.20;91.54;98407.41;1739173;82;20422;-77
2021/08/22 01:19:36;;;;;;;;;;;;;;;11.25;91.12;98411.45;1738512;81;20598;-73
2021/08/22 01:22:03;;;;;;;;;;;;;;;11.27;91.39;98411.44;1739126;81;20164;-77
2021/08/22 01:24:29;;;;;;;;;;;;;;;11.33;90.97;98412.25;1717685;82;22022;-73
2021/08/22 01:26:54;;;;;;;;;;;;;;;11.34;90.88;98413.88;1739033;81;20737;-76
2021/08/22 01:29:22;;;;;;;;;;;;;;;11.37;91.46;98406.56;1738823;82;20223;-76
2021/08/22 01:31:48;;;;;;;;;;;;;;;11.41;90.99;98404.09;1739208;81;20407;-77
2021/08/22 01:34:14;;;;;;;;;;;;;;;11.46;91.49;98410.88;1738912;82;20140;-76
2021/08/22 01:36:40;;;;;;;;;;;;;;;11.47;91.15;98407.87;1738787;81;21093;-76
2021/08/22 01:39:05;;;;;;;;;;;;;;;11.49;91.14;98411.67;1738821;82;20225;-77
2021/08/22 01:41:31;;;;;;;;;;;;;;;11.52;91.64;98402.42;1739249;81;20162;-76
2021/08/22 01:43:57;;;;;;;;;;;;;;;11.53;91.43;98408.11;1738841;82;20221;-76
2021/08/22 01:46:33;;;;;;;;;;;;;;;11.59;91.83;98406.20;1739172;82;20139;-77
2021/08/22 01:48:59;;;;;;;;;;;;;;;11.63;91.69;98403.22;1718147;82;21096;-77
2021/08/22 01:51:27;;;;;;;;;;;;;;;11.64;91.32;98404.84;1739079;82;20111;-76
2021/08/22 01:53:55;;;;;;;;;;;;;;;11.64;92.02;98408.10;1738500;82;20171;-73
2021/08/22 01:56:23;;;;;;;;;;;;;;;11.69;90.75;98402.09;1739147;82;20124;-73
2021/08/22 01:58:49;;;;;;;;;;;;;;;11.74;90.26;98408.06;1738976;82;20135;-76
2021/08/22 02:01:14;;;;;;;;;;;;;;;11.79;88.69;98406.66;1739058;81;21073;-76
2021/08/22 02:03:43;;;;;;;;;;;;;;;11.77;88.79;98408.30;1738832;82;20149;-73
2021/08/22 02:06:24;;;;;;;;;;;;;;;11.77;89.04;98406.95;1739140;82;20395;-77
2021/08/22 02:08:52;;;;;;;;;;;;;;;11.74;89.46;98413.48;1739028;82;20092;-77
2021/08/22 02:11:21;;;;;;;;;;;;;;;11.73;90.05;98409.97;1738887;81;20423;-73
2021/08/22 02:13:47;;;;;;;;;;;;;;;11.72;90.21;98404.81;1738882;82;21063;-73
2021/08/22 02:16:15;;;;;;;;;;;;;;;11.72;90.11;98402.91;1739053;82;20232;-72
2021/08/22 02:18:40;;;;;;;;;;;;;;;11.71;89.76;98401.30;1738875;82;20131;-76
2021/08/22 02:21:06;;;;;;;;;;;;;;;11.74;88.89;98403.98;1738992;82;20134;-76
2021/08/22 02:23:32;;;;;;;;;;;;;;;11.68;89.73;98401.02;1739050;81;20178;-73
2021/08/22 02:25:58;;;;;;;;;;;;;;;11.65;89.43;98396.96;1739119;81;21033;-77
2021/08/22 02:28:24;;;;;;;;;;;;;;;11.62;89.33;98392.62;1738915;82;20157;-73
2021/08/22 02:30:50;;;;;;;;;;;;;;;11.56;89.31;98397.27;1739131;82;20238;-72
2021/08/22 02:33:15;;;;;;;;;;;;;;;11.47;89.96;98405.17;1738990;82;20136;-73
2021/08/22 02:35:41;;;;;;;;;;;;;;;11.39;89.63;98403.56;1739145;81;20463;-77
2021/08/22 02:38:07;;;;;;;;;;;;;;;11.28;91.09;98402.23;1738825;82;21145;-77
2021/08/22 02:40:33;;;;;;;;;;;;;;;11.27;90.56;98402.48;1739053;82;20197;-76
2021/08/22 02:42:59;;;;;;;;;;;;;;;11.26;90.73;98398.96;1738735;81;20154;-73
2021/08/22 02:45:25;;;;;;;;;;;;;;;11.22;89.99;98401.16;1739145;82;20142;-73
2021/08/22 02:47:50;;;;;;;;;;;;;;;11.16;90.31;98396.82;1739090;82;20146;-76
2021/08/22 02:50:16;;;;;;;;;;;;;;;11.11;90.52;98392.75;1739029;81;21162;-73
2021/08/22 02:52:42;;;;;;;;;;;;;;;11.12;90.85;98400.64;1738983;81;20201;-76
2021/08/22 02:55:08;;;;;;;;;;;;;;;11.13;91.09;98391.95;1739037;81;20193;-73
2021/08/22 02:57:34;;;;;;;;;;;;;;;11.17;90.44;98391.12;1738969;82;20509;-77
2021/08/22 03:00:00;;;;;;;;;;;;;;;11.15;91.00;98390.59;1739072;82;20154;-73
2021/08/22 03:02:25;;;;;;;;;;;;;;;11.10;90.33;98383.80;1739184;82;21055;-74
2021/08/22 03:04:51;;;;;;;;;;;;;;;11.12;90.27;98384.91;1738772;82;20161;-73
2021/08/22 03:07:17;;;;;;;;;;;;;;;11.07;90.17;98382.20;1739343;82;20169;-73
2021/08/22 03:09:43;;;;;;;;;;;;;;;11.05;90.11;98381.12;1737016;82;20162;-77
2021/08/22 03:12:09;;;;;;;;;;;;;;;11.00;89.49;98390.61;1730971;82;20668;-73
2021/08/22 03:14:34;;;;;;;;;;;;;;;10.90;89.91;98381.12;1730902;83;21118;-73
2021/08/22 03:17:00;;;;;;;;;;;;;;;10.85;89.54;98388.74;1731068;83;20201;-73
2021/08/22 03:19:33;;;;;;;;;;;;;;;10.73;90.01;98378.16;1730784;83;20143;-76
2021/08/22 03:22:01;;;;;;;;;;;;;;;10.67;90.39;98386.02;1731042;83;20140;-76
2021/08/22 03:24:27;;;;;;;;;;;;;;;10.61;90.98;98379.53;1730896;82;20143;-73
2021/08/22 03:26:53;;;;;;;;;;;;;;;10.57;91.60;98386.02;1731066;82;21139;-73
2021/08/22 03:29:18;;;;;;;;;;;;;;;10.59;91.82;98380.32;1730759;82;20162;-73
2021/08/22 03:31:44;;;;;;;;;;;;;;;10.62;92.04;98383.86;1731116;83;20194;-77
2021/08/22 03:34:10;;;;;;;;;;;;;;;10.59;92.28;98381.12;1730890;83;20143;-72
2021/08/22 03:36:37;;;;;;;;;;;;;;;10.63;91.23;98384.13;1731193;82;20159;-72
2021/08/22 03:39:04;;;;;;;;;;;;;;;10.71;92.21;98383.05;1730677;83;21190;-73
2021/08/22 03:41:30;;;;;;;;;;;;;;;10.71;91.62;98378.17;1731074;82;20133;-74
2021/08/22 03:43:56;;;;;;;;;;;;;;;10.73;91.30;98382.77;1730821;83;20160;-77
2021/08/22 03:46:22;;;;;;;;;;;;;;;10.78;91.32;98377.36;1731081;83;20182;-77
2021/08/22 03:48:47;;;;;;;;;;;;;;;10.81;91.31;98382.22;1731006;82;20154;-73
2021/08/22 03:51:13;;;;;;;;;;;;;;;10.89;89.81;98384.94;1731011;83;21693;-73
2021/08/22 03:53:39;;;;;;;;;;;;;;;10.89;90.64;98378.16;1730814;83;20158;-77
2021/08/22 03:56:04;;;;;;;;;;;;;;;10.79;90.66;98376.81;1731045;82;20170;-77
2021/08/22 03:58:30;;;;;;;;;;;;;;;10.67;90.30;98378.42;1730982;82;20214;-73
2021/08/22 04:00:56;;;;;;;;;;;;;;;10.60;90.58;98386.84;1731149;83;20162;-73
2021/08/22 04:03:22;;;;;;;;;;;;;;;10.61;90.99;98385.77;1730972;83;21121;-77
2021/08/22 04:05:48;;;;;;;;;;;;;;;10.63;91.49;98384.94;1730971;83;20166;-76
2021/08/22 04:08:13;;;;;;;;;;;;;;;10.65;91.28;98380.59;1731015;83;20194;-72
2021/08/22 04:10:40;;;;;;;;;;;;;;;10.64;91.06;98377.08;1730826;82;20785;-77
2021/08/22 04:13:06;;;;;;;;;;;;;;;10.65;91.31;98384.13;1730933;82;20140;-77
2021/08/22 04:15:32;;;;;;;;;;;;;;;10.59;91.92;98377.06;1730986;82;21093;-73
2021/08/22 04:17:57;;;;;;;;;;;;;;;10.56;91.85;98379.52;1730852;82;20213;-73
2021/08/22 04:20:23;;;;;;;;;;;;;;;10.56;91.94;98384.39;1731138;82;20222;-77
2021/08/22 04:22:49;;;;;;;;;;;;;;;10.65;91.42;98387.38;1731063;83;20126;-73
2021/08/22 04:25:15;;;;;;;;;;;;;;;10.68;91.36;98384.95;1730718;82;20154;-73
2021/08/22 04:27:41;;;;;;;;;;;;;;;10.74;91.09;98379.78;1731110;83;21085;-72
2021/08/22 04:30:08;;;;;;;;;;;;;;;10.80;90.80;98383.31;1730639;83;20099;-73
2021/08/22 04:32:34;;;;;;;;;;;;;;;10.87;90.48;98384.40;1730992;83;20164;-77
2021/08/22 04:35:00;;;;;;;;;;;;;;;10.86;90.47;98383.59;1710142;83;20158;-77
2021/08/22 04:37:25;;;;;;;;;;;;;;;10.92;89.95;98383.02;1731168;82;20155;-73
2021/08/22 04:39:51;;;;;;;;;;;;;;;10.98;89.46;98382.75;1730650;82;21184;-77
2021/08/22 04:42:17;;;;;;;;;;;;;;;11.01;89.52;98385.45;1731027;83;20132;-73
2021/08/22 04:44:43;;;;;;;;;;;;;;;11.09;90.20;98386.25;1730710;83;20154;-77
2021/08/22 04:47:09;;;;;;;;;;;;;;;11.24;90.53;98383.52;1731091;83;20139;-77
2021/08/22 04:49:34;;;;;;;;;;;;;;;11.36;90.25;98377.77;1730799;82;20151;-77
2021/08/22 04:52:00;;;;;;;;;;;;;;;11.45;89.57;98380.22;1731115;82;21782;-77
2021/08/22 04:54:26;;;;;;;;;;;;;;;11.57;89.33;98384.77;1730715;82;20162;-73
2021/08/22 04:56:52;;;;;;;;;;;;;;;11.66;89.37;98378.77;1731015;82;20690;-77
2021/08/22 04:59:17;;;;;;;;;;;;;;;11.72;89.08;98381.74;1730740;83;20146;-77
2021/08/22 05:01:43;;;;;;;;;;;;;;;11.78;88.53;98373.82;1731095;83;20155;-73
2021/08/22 05:04:09;;;;;;;;;;;;;;;11.83;88.46;98378.72;1730861;82;21124;-73
2021/08/22 05:06:34;;;;;;;;;;;;;;;11.88;88.27;98371.63;1731005;83;20194;-73
2021/08/22 05:09:00;;;;;;;;;;;;;;;11.88;88.39;98372.98;1730783;83;20690;-73
2021/08/22 05:11:26;;;;;;;;;;;;;;;11.94;88.63;98371.88;1732862;82;20856;-77
2021/08/22 05:13:52;;;;;;;;;;;;;;;12.01;88.48;98373.75;1744799;82;20268;-73
2021/08/22 05:16:17;;;;;;;;;;;;;;;12.00;89.27;98370.22;1740172;82;21873;-77
2021/08/22 05:18:43;;;;;;;;;;;;;;;12.16;88.97;98367.42;1738885;81;20174;-77
2021/08/22 05:21:09;;;;;;;;;;;;;;;12.30;88.96;98371.92;1739109;82;20202;-77
2021/08/22 05:23:34;;;;;;;;;;;;;;;12.42;88.90;98369.67;1738934;81;20186;-73
2021/08/22 05:26:00;;;;;;;;;;;;;;;12.60;88.13;98367.38;1739058;81;20158;-77
2021/08/22 05:28:26;;;;;;;;;;;;;;;12.69;88.43;98370.55;1739140;82;21069;-73
2021/08/22 05:30:52;;;;;;;;;;;;;;;12.92;87.25;98366.28;1738967;81;20209;-77
2021/08/22 05:33:17;;;;;;;;;;;;;;;13.03;87.44;98363.45;1739065;82;20269;-77
2021/08/22 05:35:43;;;;;;;;;;;;;;;13.10;86.61;98361.22;1739174;82;20166;-73
2021/08/22 05:38:09;;;;;;;;;;;;;;;13.20;86.63;98370.11;1738989;82;20138;-73
2021/08/22 05:40:34;;;;;;;;;;;;;;;13.34;86.65;98362.08;1738819;82;21788;-73
2021/08/22 05:43:00;;;;;;;;;;;;;;;13.45;86.77;98364.13;1739017;82;20158;-77
2021/08/22 05:45:26;;;;;;;;;;;;;;;13.54;87.19;98366.47;1738760;82;20233;-77
2021/08/22 05:47:52;;;;;;;;;;;;;;;13.68;86.88;98362.50;1717837;82;20157;-77
2021/08/22 05:50:18;;;;;;;;;;;;;;;13.88;86.92;98362.78;1738885;81;20193;-73
2021/08/22 05:52:43;;;;;;;;;;;;;;;14.04;86.71;98362.28;1739100;82;21037;-73
2021/08/22 05:55:09;;;;;;;;;;;;;;;14.23;85.46;98362.28;1738884;81;20197;-73
2021/08/22 05:57:35;;;;;;;;;;;;;;;14.29;85.11;98358.39;1718140;82;20143;-77
2021/08/22 06:00:01;;;;;;;;;;;;;;;14.38;84.91;98352.52;1738899;82;20162;-73
2021/08/22 06:02:27;;;;;;;;;;;;;;;14.58;84.75;98358.78;1739097;81;20706;-73
2021/08/22 06:04:53;;;;;;;;;;;;;;;14.70;84.04;98356.42;1738720;81;20932;-77
2021/08/22 06:07:23;;;;;;;;;;;;;;;14.80;84.39;98349.42;1739088;82;20162;-77
2021/08/22 06:09:48;;;;;;;;;;;;;;;15.06;83.85;98344.33;1738844;82;20139;-76
2021/08/22 06:12:15;;;;;;;;;;;;;;;15.17;83.17;98337.56;1736298;81;20174;-73
2021/08/22 06:14:41;;;;;;;;;;;;;;;15.25;83.10;98344.24;1730755;83;20419;-73
2021/08/22 06:17:06;;;;;;;;;;;;;;;15.37;82.48;98341.00;1730944;83;21129;-77
2021/08/22 06:19:32;;;;;;;;;;;;;;;15.60;83.04;98333.17;1730726;83;20205;-73
2021/08/22 06:21:58;;;;;;;;;;;;;;;15.79;82.22;98331.70;1730913;82;20206;-77
2021/08/22 06:24:23;;;;;;;;;;;;;;;15.90;80.82;98337.78;1730754;83;20482;-73
2021/08/22 06:26:49;;;;;;;;;;;;;;;16.16;81.07;98333.36;1731077;82;20238;-77
2021/08/22 06:29:15;;;;;;;;;;;;;;;16.21;80.45;98335.96;1730710;82;21286;-73
2021/08/22 06:31:41;;;;;;;;;;;;;;;16.40;79.73;98334.98;1710225;83;20154;-73
2021/08/22 06:34:07;;;;;;;;;;;;;;;16.45;79.44;98327.47;1730894;82;20202;-77
2021/08/22 06:36:40;;;;;;;;;;;;;;;16.57;78.66;98329.64;1730995;82;20430;-73
2021/08/22 06:39:07;;;;;;;;;;;;;;;16.73;78.65;98323.27;1731077;82;20140;-77
2021/08/22 06:41:33;;;;;;;;;;;;;;;16.96;78.57;98322.69;1731145;83;21055;-74
2021/08/22 06:43:59;;;;;;;;;;;;;;;17.21;77.86;98317.89;1730872;83;20408;-77
2021/08/22 06:46:25;;;;;;;;;;;;;;;17.57;77.59;98322.38;1731216;83;20124;-77
2021/08/22 06:48:51;;;;;;;;;;;;;;;17.73;77.03;98318.09;1730996;82;20146;-74
2021/08/22 06:51:16;;;;;;;;;;;;;;;17.82;76.23;98311.27;1731266;83;20138;-74
2021/08/22 06:53:42;;;;;;;;;;;;;;;17.93;75.54;98315.30;1731103;83;21057;-78
2021/08/22 06:56:08;;;;;;;;;;;;;;;18.12;75.02;98316.39;1731186;82;20206;-77
2021/08/22 06:58:34;;;;;;;;;;;;;;;18.14;74.88;98315.50;1731107;83;20182;-74
2021/08/22 07:00:59;;;;;;;;;;;;;;;18.26;76.15;98315.66;1730883;83;20167;-74
2021/08/22 07:03:25;;;;;;;;;;;;;;;18.60;75.32;98316.20;1731107;83;20185;-78
2021/08/22 07:05:51;;;;;;;;;;;;;;;19.11;74.39;98314.50;1730776;83;21871;-74
2021/08/22 07:08:17;;;;;;;;;;;;;;;19.75;72.54;98310.85;1731025;83;20186;-78
2021/08/22 07:10:43;;;;;;;;;;;;;;;20.05;71.19;98308.86;1730885;82;20164;-74
2021/08/22 07:13:09;;;;;;;;;;;;;;;20.53;69.92;98317.41;1730988;83;20151;-74
2021/08/22 07:15:34;;;;;;;;;;;;;;;20.81;69.74;98314.06;1731024;82;20143;-74
2021/08/22 07:18:01;;;;;;;;;;;;;;;21.30;67.40;98316.95;1731097;83;21158;-74
2021/08/22 07:20:26;;;;;;;;;;;;;;;21.50;66.28;98313.86;1730875;83;20176;-78
2021/08/22 07:22:52;;;;;;;;;;;;;;;21.73;65.80;98315.01;1731162;83;20233;-74
2021/08/22 07:25:20;;;;;;;;;;;;;;;22.14;65.03;98311.77;1730856;82;20170;-74
2021/08/22 07:27:46;;;;;;;;;;;;;;;22.61;63.45;98322.18;1731202;82;20388;-78
2021/08/22 07:30:12;;;;;;;;;;;;;;;22.93;62.36;98320.34;1730874;83;21797;-75
2021/08/22 07:32:38;;;;;;;;;;;;;;;23.24;62.31;98318.98;1730942;83;20467;-74
2021/08/22 07:35:05;;;;;;;;;;;;;;;23.60;60.84;98314.39;1730966;83;20455;-78
2021/08/22 07:37:30;;;;;;;;;;;;;;;23.61;58.84;98314.02;1731151;82;20489;-78
2021/08/22 07:39:56;;;;;;;;;;;;;;;23.78;60.03;98304.55;1730768;83;20171;-74
2021/08/22 07:42:22;;;;;;;;;;;;;;;23.98;57.84;98313.69;1731160;83;21109;-78
2021/08/22 07:44:48;;;;;;;;;;;;;;;24.42;56.49;98307.35;1730842;82;20166;-74
2021/08/22 07:47:14;;;;;;;;;;;;;;;24.48;57.59;98312.83;1731142;82;20419;-74
2021/08/22 07:49:40;;;;;;;;;;;;;;;24.73;56.38;98309.17;1730873;83;20869;-79
2021/08/22 07:52:06;;;;;;;;;;;;;;;25.08;55.54;98307.47;1731189;82;20214;-75
2021/08/22 07:54:32;;;;;;;;;;;;;;;25.53;54.18;98311.61;1730774;83;21863;-74
2021/08/22 07:56:57;;;;;;;;;;;;;;;25.88;54.02;98307.82;1730946;83;20169;-79
2021/08/22 07:59:23;;;;;;;;;;;;;;;25.79;53.89;98303.13;1710023;83;20186;-79
2021/08/22 08:01:49;;;;;;;;;;;;;;;25.70;54.34;98301.97;1731174;83;20139;-79
2021/08/22 08:04:15;;;;;;;;;;;;;;;26.25;52.81;98305.19;1730824;82;20162;-74
2021/08/22 08:06:40;;;;;;;;;;;;;;;27.01;52.89;98306.91;1731197;82;21158;-74
2021/08/22 08:09:06;;;;;;;;;;;;;;;27.41;51.68;98302.73;1730817;83;20230;-75
2021/08/22 08:11:32;;;;;;;;;;;;;;;27.49;52.04;98304.39;1730848;83;20237;-75
2021/08/22 08:13:58;;;;;;;;;;;;;;;27.53;48.64;98298.88;1730854;83;20147;-75
2021/08/22 08:16:23;;;;;;;;;;;;;;;28.43;50.14;98290.52;1731185;82;20202;-75
2021/08/22 08:18:49;;;;;;;;;;;;;;;28.65;45.93;98289.42;1730870;83;21816;-76
2021/08/22 08:21:15;;;;;;;;;;;;;;;28.28;46.00;98291.01;1730663;83;20233;-79
2021/08/22 08:23:41;;;;;;;;;;;;;;;27.85;46.92;98291.36;1730954;82;20132;-76
2021/08/22 08:26:07;;;;;;;;;;;;;;;28.93;47.03;98289.52;1730860;83;20151;-79
2021/08/22 08:28:33;;;;;;;;;;;;;;;29.12;43.86;98287.55;1731021;83;20249;-76
2021/08/22 08:30:58;;;;;;;;;;;;;;;29.37;42.77;98283.39;1730907;83;21053;-79
2021/08/22 08:33:24;;;;;;;;;;;;;;;28.94;41.85;98278.56;1730971;82;20174;-76
2021/08/22 08:35:50;;;;;;;;;;;;;;;30.45;44.44;98283.45;1730919;82;20166;-79
2021/08/22 08:38:16;;;;;;;;;;;;;;;30.35;39.38;98286.49;1730941;83;20131;-76
2021/08/22 08:40:42;;;;;;;;;;;;;;;30.59;39.70;98280.58;1730923;82;20310;-79
2021/08/22 08:43:09;;;;;;;;;;;;;;;30.78;39.23;98284.33;1731013;82;21156;-79
2021/08/22 08:46:00;;;;;;;;;;;;;;;31.56;39.39;98274.59;1709986;83;20159;-76
2021/08/22 08:48:32;;;;;;;;;;;;;;;32.15;38.85;98274.44;1731009;83;20396;-76
2021/08/22 08:51:20;;;;;;;;;;;;;;;31.89;37.80;98275.12;1730871;82;20404;-79
2021/08/22 08:53:50;;;;;;;;;;;;;;;32.10;36.20;98272.08;1711259;83;20437;-76
2021/08/22 08:56:17;;;;;;;;;;;;;;;32.27;35.52;98269.68;1730305;82;21106;-79
2021/08/22 08:58:43;;;;;;;;;;;;;;;32.33;33.66;98262.25;1730856;83;20184;-76
2021/08/22 09:01:08;;;;;;;;;;;;;;;32.76;33.70;98268.89;1730793;82;20198;-78
2021/08/22 09:03:36;;;;;;;;;;;;;;;33.42;32.20;98263.97;1730953;83;20237;-79
2021/08/22 09:06:21;;;;;;;;;;;;;;;34.10;34.76;98264.36;1730884;82;20136;-79
2021/08/22 09:09:24;;;;;;;;;;;;;;;33.73;29.08;98271.64;1730020;82;21634;-77
2021/08/22 09:12:19;;;;;;;;;;;;;;;33.99;32.19;98257.34;1734617;82;20132;-79
2021/08/22 09:15:07;;;;;;;;;;;;;;;33.50;29.59;98262.02;1738973;81;20071;-78
2021/08/22 09:18:05;;;;;;;;;;;;;;;33.27;30.39;98257.13;1739381;82;20191;-79
2021/08/22 09:21:05;;;;;;;;;;;;;;;33.97;31.04;98259.80;1738931;82;20080;-79
2021/08/22 09:23:49;;;;;;;;;;;;;;;33.85;29.92;98261.20;1738969;81;21096;-77
2021/08/22 09:26:41;;;;;;;;;;;;;;;34.44;27.57;98264.10;1738614;82;20131;-79
2021/08/22 09:29:44;;;;;;;;;;;;;;;34.27;27.37;98265.81;1739262;82;20152;-77
2021/08/22 09:32:47;;;;;;;;;;;;;;;34.41;28.74;98266.36;1739143;81;20129;-76
2021/08/22 09:35:31;;;;;;;;;;;;;;;34.39;26.74;98262.37;1738945;82;20483;-79
2021/08/22 09:38:18;;;;;;;;;;;;;;;34.89;27.59;98269.17;1739131;81;21647;-77
2021/08/22 09:41:03;;;;;;;;;;;;;;;35.27;30.35;98267.28;1735749;82;20140;-76
2021/08/22 09:43:58;;;;;;;;;;;;;;;34.44;29.70;98259.88;1734189;82;20403;-79
2021/08/22 09:46:47;;;;;;;;;;;;;;;33.53;29.18;98260.35;1738816;81;20156;-79
2021/08/22 09:49:43;;;;;;;;;;;;;;;33.89;27.31;98261.33;1739252;81;20140;-76
2021/08/22 09:52:35;;;;;;;;;;;;;;;34.42;30.68;98262.31;1739126;81;21025;-79
2021/08/22 09:55:29;;;;;;;;;;;;;;;35.16;26.33;98266.13;1733182;82;20136;-80
2021/08/22 09:58:27;;;;;;;;;;;;;;;33.72;26.05;98263.03;1739281;82;20164;-79
2021/08/22 10:01:06;;;;;;;;;;;;;;;34.61;25.16;98257.09;1738821;81;20447;-76
2021/08/22 10:03:51;;;;;;;;;;;;;;;34.62;25.88;98257.30;1742754;81;20139;-76
2021/08/22 10:06:40;;;;;;;;;;;;;;;32.78;29.53;98253.83;1739053;82;21065;-79
2021/08/22 10:09:23;;;;;;;;;;;;;;;31.62;30.99;98255.33;1738664;82;20164;-79
2021/08/22 10:11:56;;;;;;;;;;;;;;;30.20;31.85;98247.22;1726496;82;20410;-79
2021/08/22 10:14:23;;;;;;;;;;;;;;;29.51;33.43;98247.75;1738957;81;20179;-76
2021/08/22 10:16:49;;;;;;;;;;;;;;;28.22;32.98;98250.20;1738795;82;20407;-79
2021/08/22 10:19:15;;;;;;;;;;;;;;;27.94;34.35;98245.27;1738873;82;21048;-78
2021/08/22 10:21:41;;;;;;;;;;;;;;;27.88;35.29;98241.88;1738847;82;20165;-76
2021/08/22 10:24:26;;;;;;;;;;;;;;;27.80;35.70;98241.83;1738948;81;20162;-75
2021/08/22 10:26:53;;;;;;;;;;;;;;;27.70;36.34;98238.98;1708806;84;20138;-78
2021/08/22 10:29:21;;;;;;;;;;;;;;;27.37;36.95;98243.49;1729638;82;20128;-78
2021/08/22 10:31:56;;;;;;;;;;;;;;;27.31;37.46;98238.66;1738741;82;21050;-79
2021/08/22 10:34:25;;;;;;;;;;;;;;;26.93;38.19;98242.89;1738859;81;20294;-77
2021/08/22 10:36:52;;;;;;;;;;;;;;;26.85;38.10;98237.05;1738853;81;20143;-79
2021/08/22 10:39:27;;;;;;;;;;;;;;;26.40;38.07;98238.13;1738914;82;20160;-78
2021/08/22 10:42:00;;;;;;;;;;;;;;;26.42;38.50;98237.19;1738776;82;20139;-78
2021/08/22 10:44:41;;;;;;;;;;;;;;;26.26;39.73;98240.13;1738924;81;21762;-75
2021/08/22 10:47:09;;;;;;;;;;;;;;;26.08;39.77;98230.78;1739089;82;20131;-78
2021/08/22 10:49:54;;;;;;;;;;;;;;;26.01;41.75;98224.55;1738399;82;20163;-75
2021/08/22 10:52:36;;;;;;;;;;;;;;;25.90;40.83;98229.16;1738999;82;20736;-76
2021/08/22 10:55:14;;;;;;;;;;;;;;;25.74;41.56;98232.70;1738956;82;20257;-76
2021/08/22 10:57:52;;;;;;;;;;;;;;;25.92;41.23;98232.36;1739081;82;21251;-78
2021/08/22 11:00:25;;;;;;;;;;;;;;;26.05;40.86;98229.54;1737777;82;20080;-78
2021/08/22 11:02:52;;;;;;;;;;;;;;;26.04;41.21;98230.72;1739105;82;20147;-75
2021/08/22 11:05:22;;;;;;;;;;;;;;;25.99;41.25;98229.68;1738363;82;20310;-78
2021/08/22 11:07:54;;;;;;;;;;;;;;;25.96;41.78;98233.78;1739106;82;20171;-75
2021/08/22 11:10:18;;;;;;;;;;;;;;;26.03;41.40;98234.68;1738470;82;21110;-75
2021/08/22 11:12:44;;;;;;;;;;;;;;;26.06;41.20;98233.11;1741810;81;20111;-78
2021/08/22 11:15:25;;;;;;;;;;;;;;;26.24;41.16;98235.55;1739417;82;20174;-75
2021/08/22 11:17:52;;;;;;;;;;;;;;;26.39;41.54;98236.53;1739011;82;20735;-75
2021/08/22 11:20:19;;;;;;;;;;;;;;;26.61;40.49;98241.75;1738982;81;20132;-75
2021/08/22 11:22:45;;;;;;;;;;;;;;;26.70;40.69;98237.48;1739207;82;21057;-78
2021/08/22 11:25:11;;;;;;;;;;;;;;;26.64;39.59;98229.86;1717915;82;20410;-78
2021/08/22 11:27:37;;;;;;;;;;;;;;;26.51;39.95;98235.49;1738997;81;20187;-75
2021/08/22 11:30:06;;;;;;;;;;;;;;;26.46;39.56;98234.44;1739086;81;20150;-79
2021/08/22 11:32:32;;;;;;;;;;;;;;;26.49;40.16;98234.48;1739208;81;20171;-76
2021/08/22 11:35:08;;;;;;;;;;;;;;;26.30;40.63;98236.00;1738806;81;21068;-75
2021/08/22 11:37:34;;;;;;;;;;;;;;;26.26;40.31;98238.75;1739287;82;20112;-76
2021/08/22 11:40:09;;;;;;;;;;;;;;;26.12;38.65;98231.61;1739090;82;20209;-78
2021/08/22 11:42:35;;;;;;;;;;;;;;;26.23;39.65;98226.19;1739050;82;20132;-78
2021/08/22 11:45:10;;;;;;;;;;;;;;;26.38;40.54;98226.60;1739172;81;20128;-75
2021/08/22 11:47:37;;;;;;;;;;;;;;;26.36;38.80;98228.94;1739203;81;22016;-78
2021/08/22 11:50:07;;;;;;;;;;;;;;;26.44;40.15;98226.48;1739051;81;20162;-78
2021/08/22 11:52:35;;;;;;;;;;;;;;;26.50;39.49;98226.95;1739250;82;20435;-76
2021/08/22 11:55:01;;;;;;;;;;;;;;;26.30;38.30;98217.95;1739171;82;20149;-76
2021/08/22 11:57:28;;;;;;;;;;;;;;;26.35;38.38;98223.97;1739303;81;20169;-76
2021/08/22 11:59:58;;;;;;;;;;;;;;;26.54;39.20;98221.62;1738904;82;21876;-75
2021/08/22 12:02:25;;;;;;;;;;;;;;;26.40;38.70;98222.26;1739080;82;20350;-76
2021/08/22 12:05:14;;;;;;;;;;;;;;;26.55;40.07;98226.59;1738880;81;20124;-75
2021/08/22 12:07:44;;;;;;;;;;;;;;;26.59;38.30;98218.52;1739090;82;20140;-78
2021/08/22 12:10:21;;;;;;;;;;;;;;;26.81;40.11;98218.72;1739154;82;20407;-75
2021/08/22 12:12:47;;;;;;;;;;;;;;;26.91;39.69;98218.81;1741002;81;21880;-78
2021/08/22 12:15:13;;;;;;;;;;;;;;;26.77;38.07;98213.73;1745026;81;20177;-75
2021/08/22 12:17:39;;;;;;;;;;;;;;;26.73;38.39;98208.72;1740856;82;20187;-75
2021/08/22 12:20:15;;;;;;;;;;;;;;;26.75;39.28;98204.39;1739164;81;20213;-76
2021/08/22 12:22:41;;;;;;;;;;;;;;;26.84;39.31;98202.69;1739190;82;20161;-78
2021/08/22 12:25:06;;;;;;;;;;;;;;;26.87;38.84;98203.30;1739054;81;20510;-76
2021/08/22 12:27:36;;;;;;;;;;;;;;;26.83;38.17;98195.50;1739207;82;20265;-76
2021/08/22 12:30:10;;;;;;;;;;;;;;;26.87;38.16;98191.59;1738942;82;20156;-78
2021/08/22 12:32:37;;;;;;;;;;;;;;;27.04;38.70;98198.52;1739231;81;20159;-75
2021/08/22 12:35:04;;;;;;;;;;;;;;;26.93;39.09;98192.84;1739158;82;20152;-76
2021/08/22 12:37:29;;;;;;;;;;;;;;;26.88;39.53;98196.55;1738896;82;21267;-75
2021/08/22 12:39:57;;;;;;;;;;;;;;;26.96;39.33;98194.05;1738738;82;20178;-78
2021/08/22 12:42:22;;;;;;;;;;;;;;;26.97;39.15;98194.25;1738932;82;20143;-75
2021/08/22 12:44:48;;;;;;;;;;;;;;;27.12;39.32;98190.45;1738815;82;20178;-76
2021/08/22 12:47:14;;;;;;;;;;;;;;;27.22;39.21;98186.94;1738898;82;20218;-76
2021/08/22 12:49:40;;;;;;;;;;;;;;;27.14;37.88;98181.71;1738870;82;21163;-78
2021/08/22 12:52:07;;;;;;;;;;;;;;;27.30;38.39;98177.27;1738819;82;20176;-75
2021/08/22 12:54:33;;;;;;;;;;;;;;;27.43;39.59;98177.14;1738986;82;20435;-79
2021/08/22 12:56:59;;;;;;;;;;;;;;;27.66;39.85;98173.55;1738952;82;20796;-75